createdAt,value
2018-09-17T00:01:08.889Z,9.77
2018-09-17T00:03:37.065Z,10.50
2018-09-17T00:06:05.196Z,9.97
2018-09-17T00:08:33.089Z,9.73
2018-09-17T00:11:01.215Z,10.50
2018-09-17T00:13:29.371Z,10.20
2018-09-17T00:15:57.486Z,10.37
2018-09-17T00:18:25.643Z,10.53
2018-09-17T00:20:53.830Z,10.27
2018-09-17T00:23:21.966Z,11.17
2018-09-17T00:25:50.078Z,10.33
2018-09-17T00:28:18.028Z,10.73
2018-09-17T00:30:46.129Z,11.57
2018-09-17T00:33:14.310Z,10.90
2018-09-17T00:35:42.431Z,11.27
2018-09-17T00:38:10.845Z,11.60
2018-09-17T00:40:39.030Z,11.00
2018-09-17T00:43:07.242Z,11.70
2018-09-17T00:45:35.365Z,10.83
2018-09-17T00:48:03.502Z,11.37
2018-09-17T00:50:31.627Z,11.00
2018-09-17T00:52:59.757Z,11.13
2018-09-17T00:55:27.709Z,11.47
2018-09-17T00:57:55.912Z,11.40
2018-09-17T01:00:23.807Z,11.73
2018-09-17T01:02:51.942Z,11.57
2018-09-17T01:05:20.078Z,11.27
2018-09-17T01:07:48.271Z,10.67
2018-09-17T01:10:16.189Z,10.93
2018-09-17T01:12:44.333Z,10.60
2018-09-17T01:15:12.475Z,10.93
2018-09-17T01:17:40.592Z,10.47
2018-09-17T01:20:08.782Z,11.93
2018-09-17T01:22:36.910Z,11.07
2018-09-17T01:25:05.079Z,11.67
2018-09-17T01:27:32.988Z,11.13
2018-09-17T01:30:00.909Z,11.20
2018-09-17T01:32:29.238Z,10.60
2018-09-17T01:34:57.141Z,11.27
2018-09-17T01:37:25.298Z,11.50
2018-09-17T01:39:53.471Z,11.10
2018-09-17T01:42:21.617Z,11.60
2018-09-17T01:44:49.945Z,11.03
2018-09-17T01:47:18.075Z,11.67
2018-09-17T01:49:46.305Z,11.07
2018-09-17T01:52:14.441Z,12.07
2018-09-17T01:54:42.585Z,12.00
2018-09-17T01:57:10.728Z,11.90
2018-09-17T01:59:38.638Z,12.10
2018-09-17T02:02:07.562Z,11.97
2018-09-17T02:04:35.763Z,12.07
2018-09-17T02:07:03.981Z,11.23
2018-09-17T02:09:32.158Z,11.80
2018-09-17T02:12:00.310Z,11.83
2018-09-17T02:14:28.453Z,12.83
2018-09-17T02:16:56.601Z,12.43
2018-09-17T02:19:24.506Z,12.43
2018-09-17T02:21:52.649Z,13.10
2018-09-17T02:24:20.781Z,12.57
2018-09-17T02:26:48.930Z,12.60
2018-09-17T02:29:17.068Z,13.10
2018-09-17T02:31:45.218Z,13.97
2018-09-17T02:34:13.401Z,13.03
2018-09-17T02:36:41.503Z,12.90
2018-09-17T02:39:09.637Z,11.97
2018-09-17T02:41:37.781Z,13.10
2018-09-17T02:44:05.962Z,13.27
2018-09-17T02:46:34.107Z,13.60
2018-09-17T02:49:02.265Z,13.27
2018-09-17T02:51:30.410Z,11.83
2018-09-17T02:53:58.570Z,12.70
2018-09-17T02:56:26.725Z,12.43
2018-09-17T02:58:55.162Z,13.30
2018-09-17T03:01:23.346Z,12.53
2018-09-17T03:03:51.616Z,12.33
2018-09-17T03:06:19.537Z,12.40
2018-09-17T03:08:47.756Z,12.47
2018-09-17T03:11:15.913Z,12.67
2018-09-17T03:13:44.069Z,13.37
2018-09-17T03:16:12.221Z,12.53
2018-09-17T03:18:56.713Z,12.33
2018-09-17T03:21:24.882Z,12.93
2018-09-17T03:23:53.084Z,13.77
2018-09-17T03:26:21.464Z,13.30
2018-09-17T03:28:49.773Z,13.03
2018-09-17T03:31:17.993Z,12.37
2018-09-17T03:33:46.137Z,13.27
2018-09-17T03:36:14.278Z,12.63
2018-09-17T03:38:44.459Z,13.17
2018-09-17T03:41:13.269Z,13.07
2018-09-17T03:43:42.808Z,13.77
2018-09-17T03:46:10.976Z,13.70
2018-09-17T03:48:39.972Z,13.83
2018-09-17T03:51:08.663Z,13.43
2018-09-17T05:39:58.736Z,16.47
2018-09-17T05:42:26.882Z,16.03
2018-09-17T05:44:55.157Z,15.23
2018-09-17T05:47:23.346Z,16.27
2018-09-17T05:49:51.505Z,17.27
2018-09-17T05:52:19.677Z,15.90
2018-09-17T05:54:47.836Z,16.60
2018-09-17T05:57:15.953Z,16.80
2018-09-17T05:59:44.179Z,16.67
2018-09-17T06:02:12.277Z,16.03
2018-09-17T06:04:40.421Z,15.83
2018-09-17T06:07:08.617Z,15.30
2018-09-17T06:09:36.752Z,15.00
2018-09-17T06:12:04.857Z,15.97
2018-09-17T06:14:33.029Z,15.37
2018-09-17T06:17:01.251Z,15.13
2018-09-17T06:19:29.443Z,16.13
2018-09-17T06:21:57.622Z,15.77
2018-09-17T06:24:25.937Z,14.87
2018-09-17T06:26:54.094Z,15.07
2018-09-17T06:29:22.242Z,16.00
2018-09-17T06:31:50.405Z,15.87
2018-09-17T06:34:18.538Z,15.77
2018-09-17T06:36:46.698Z,16.07
2018-09-17T06:39:14.870Z,15.77
2018-09-17T06:41:43.029Z,15.63
2018-09-17T06:44:11.115Z,15.17
2018-09-17T06:46:39.268Z,15.47
2018-09-17T06:49:07.522Z,16.07
2018-09-17T06:51:35.661Z,16.10
2018-09-17T06:54:03.807Z,15.80
2018-09-17T06:56:32.822Z,15.60
2018-09-17T06:59:00.977Z,16.03
2018-09-17T07:01:29.127Z,15.13
2018-09-17T07:03:57.253Z,15.00
2018-09-17T07:06:25.407Z,15.03
2018-09-17T07:08:53.534Z,15.60
2018-09-17T07:11:21.745Z,15.43
2018-09-17T07:13:49.880Z,15.30
2018-09-17T07:16:18.041Z,14.67
2018-09-17T07:18:46.179Z,15.40
2018-09-17T07:21:14.324Z,15.10
2018-09-17T07:23:42.482Z,13.73
2018-09-17T07:26:10.610Z,13.63
2018-09-17T07:28:38.745Z,14.13
2018-09-17T07:31:06.893Z,14.23
2018-09-17T07:33:35.041Z,12.90
2018-09-17T07:36:03.203Z,13.80
2018-09-17T07:38:31.361Z,13.73
2018-09-17T07:40:59.510Z,13.40
2018-09-17T07:43:27.647Z,12.53
2018-09-17T07:45:55.793Z,12.87
2018-09-17T07:48:23.954Z,13.10
2018-09-17T07:50:52.114Z,20.60
2018-09-17T07:53:20.283Z,13.47
2018-09-17T07:55:48.383Z,12.47
2018-09-17T07:58:16.529Z,12.33
2018-09-17T08:00:44.707Z,13.10
2018-09-17T08:03:12.851Z,13.00
2018-09-17T08:05:41.052Z,13.23
2018-09-17T08:08:09.147Z,12.70
2018-09-17T08:10:37.278Z,12.50
2018-09-17T08:13:05.715Z,13.23
2018-09-17T08:15:33.882Z,12.07
2018-09-17T08:18:02.038Z,11.90
2018-09-17T08:20:30.189Z,12.10
2018-09-17T08:22:58.329Z,12.27
2018-09-17T08:25:26.534Z,11.03
2018-09-17T08:27:55.173Z,11.67
2018-09-17T08:30:24.065Z,11.97
2018-09-17T08:32:52.899Z,11.30
2018-09-17T08:35:21.674Z,11.47
2018-09-17T08:37:49.886Z,10.70
2018-09-17T08:40:18.026Z,10.97
2018-09-17T08:42:46.191Z,10.70
2018-09-17T08:45:14.337Z,11.43
2018-09-17T08:47:42.500Z,10.87
2018-09-17T08:50:10.643Z,11.03
2018-09-17T08:52:38.862Z,9.90
2018-09-17T08:55:09.454Z,9.80
2018-09-17T08:57:40.765Z,9.63
2018-09-17T09:00:15.167Z,9.83
2018-09-17T09:02:45.101Z,9.27
2018-09-17T09:05:18.776Z,9.57
2018-09-17T09:07:52.916Z,8.87
2018-09-17T09:10:26.743Z,9.00
2018-09-17T09:12:56.425Z,8.93
2018-09-17T09:15:30.310Z,8.07
2018-09-17T09:17:58.473Z,8.27
2018-09-17T09:20:26.686Z,7.67
2018-09-17T09:22:54.603Z,7.23
2018-09-17T09:25:22.745Z,7.57
2018-09-17T09:27:50.882Z,7.57
2018-09-17T09:30:19.024Z,6.53
2018-09-17T09:32:47.145Z,7.50
2018-09-17T09:35:15.273Z,6.90
2018-09-17T09:37:43.409Z,6.73
2018-09-17T09:40:12.015Z,6.40
2018-09-17T09:42:40.357Z,6.20
2018-09-17T09:45:08.505Z,6.10
2018-09-17T09:47:36.647Z,5.90
2018-09-17T09:50:04.905Z,5.80
2018-09-17T09:52:33.038Z,5.30
2018-09-17T09:55:01.308Z,5.60
2018-09-17T09:57:29.502Z,5.67
2018-09-17T09:59:57.654Z,5.50
2018-09-17T10:02:31.213Z,4.37
2018-09-17T10:04:59.385Z,4.70
2018-09-17T10:07:27.513Z,4.10
2018-09-17T10:10:01.037Z,3.47
2018-09-17T10:12:34.545Z,3.63
2018-09-17T10:15:08.106Z,3.20
2018-09-17T10:17:41.505Z,3.60
2018-09-17T10:20:09.657Z,3.40
2018-09-17T10:22:37.781Z,3.90
2018-09-17T10:25:05.941Z,3.43
2018-09-17T10:27:34.077Z,3.47
2018-09-17T10:30:02.271Z,3.40
2018-09-17T10:32:30.361Z,3.17
2018-09-17T10:34:58.538Z,3.30
2018-09-17T10:37:26.765Z,2.97
2018-09-17T10:39:55.002Z,3.10
2018-09-17T10:42:23.123Z,2.90
2018-09-17T10:44:51.369Z,3.27
2018-09-17T10:47:19.506Z,3.00
2018-09-17T10:49:47.634Z,3.20
2018-09-17T10:52:15.757Z,3.47
2018-09-17T10:54:43.888Z,2.97
2018-09-17T10:57:12.064Z,3.30
2018-09-17T10:59:40.183Z,3.17
2018-09-17T11:02:08.321Z,3.20
2018-09-17T11:04:36.481Z,3.10
2018-09-17T11:07:04.701Z,2.93
2018-09-17T11:09:32.865Z,2.87
2018-09-17T11:12:00.978Z,2.70
2018-09-17T11:14:29.113Z,3.10
2018-09-17T11:16:57.250Z,3.43
2018-09-17T11:19:25.384Z,3.10
2018-09-17T11:21:53.536Z,3.13
2018-09-17T11:24:21.678Z,3.10
2018-09-17T11:26:49.859Z,2.70
2018-09-17T11:29:18.050Z,2.80
2018-09-17T11:31:46.166Z,3.00
2018-09-17T11:34:14.309Z,2.83
2018-09-17T11:36:42.446Z,2.90
2018-09-17T11:39:11.269Z,3.30
2018-09-17T11:41:40.058Z,2.93
2018-09-17T11:44:08.197Z,3.00
2018-09-17T11:46:36.509Z,2.77
2018-09-17T11:49:04.643Z,2.90
2018-09-17T11:51:32.781Z,2.57
2018-09-17T11:54:01.002Z,3.00
2018-09-17T11:56:29.222Z,2.60
2018-09-17T11:58:57.346Z,3.10
2018-09-17T12:01:31.053Z,2.53
2018-09-17T12:04:04.561Z,3.10
2018-09-17T12:06:38.225Z,2.90
2018-09-17T12:09:08.251Z,3.00
2018-09-17T12:11:36.103Z,3.07
2018-09-17T12:14:04.253Z,2.80
2018-09-17T12:16:32.148Z,3.13
2018-09-17T12:19:00.293Z,2.80
2018-09-17T12:21:29.493Z,2.80
2018-09-17T12:23:57.680Z,2.80
2018-09-17T12:26:25.945Z,2.60
2018-09-17T12:28:54.118Z,2.90
2018-09-17T12:31:22.281Z,2.77
2018-09-17T12:33:50.469Z,2.80
2018-09-17T12:36:18.565Z,2.97
2018-09-17T12:38:46.807Z,2.80
2018-09-17T12:41:14.997Z,2.90
2018-09-17T12:43:43.129Z,2.97
2018-09-17T12:46:11.260Z,3.00
2018-09-17T12:48:39.407Z,2.67
2018-09-17T12:51:07.557Z,3.10
2018-09-17T12:53:35.658Z,2.67
2018-09-17T12:56:03.849Z,2.73
2018-09-17T12:58:31.981Z,2.83
2018-09-17T13:01:00.118Z,2.90
2018-09-17T13:03:28.249Z,2.50
2018-09-17T13:05:56.394Z,3.10
2018-09-17T13:08:24.538Z,2.93
2018-09-17T13:10:52.694Z,2.60
2018-09-17T13:13:20.582Z,2.90
2018-09-17T13:15:53.649Z,2.87
2018-09-17T13:18:22.678Z,2.90
2018-09-17T13:20:50.841Z,2.83
2018-09-17T13:23:18.977Z,2.50
2018-09-17T13:25:47.122Z,2.73
2018-09-17T13:28:15.626Z,2.97
2018-09-17T13:30:43.826Z,3.00
2018-09-17T13:33:11.999Z,2.97
2018-09-17T13:35:39.897Z,2.67
2018-09-17T13:38:08.097Z,2.90
2018-09-17T13:40:35.996Z,2.87
2018-09-17T13:43:04.357Z,2.97
2018-09-17T13:45:32.557Z,2.70
2018-09-17T13:48:00.722Z,2.80
2018-09-17T13:50:28.609Z,2.93
2018-09-17T13:52:56.759Z,2.70
2018-09-17T13:55:24.916Z,3.10
2018-09-17T13:57:53.024Z,2.90
2018-09-17T14:00:21.247Z,2.87
2018-09-17T14:02:49.389Z,2.93
2018-09-17T14:05:17.548Z,2.80
2018-09-17T14:07:45.661Z,2.47
2018-09-17T14:10:13.865Z,2.83
2018-09-17T14:12:41.935Z,2.40
2018-09-17T14:15:10.073Z,2.70
2018-09-17T14:17:38.241Z,2.80
2018-09-17T14:20:06.194Z,2.50
2018-09-17T14:22:34.321Z,2.60
2018-09-17T14:25:02.498Z,3.10
2018-09-17T14:27:30.405Z,2.80
2018-09-17T14:29:58.575Z,2.60
2018-09-17T14:32:32.005Z,3.33
2018-09-17T14:34:59.909Z,3.00
2018-09-17T14:37:28.067Z,2.47
2018-09-17T14:39:56.190Z,2.80
2018-09-17T14:42:24.345Z,3.10
2018-09-17T14:44:52.532Z,2.90
2018-09-17T14:47:20.695Z,2.70
2018-09-17T14:49:48.838Z,2.73
2018-09-17T14:52:17.070Z,2.67
2018-09-17T14:54:45.182Z,3.10
2018-09-17T14:57:13.265Z,3.20
2018-09-17T14:59:41.401Z,2.80
2018-09-17T15:02:09.620Z,2.97
2018-09-17T15:04:37.767Z,2.97
2018-09-17T15:07:05.910Z,2.70
2018-09-17T15:09:34.057Z,2.87
2018-09-17T15:12:01.994Z,2.53
2018-09-17T15:14:31.174Z,3.17
2018-09-17T15:16:59.276Z,2.87
2018-09-17T15:19:27.485Z,3.70
2018-09-17T15:21:55.616Z,3.30
2018-09-17T15:24:23.767Z,3.17
2018-09-17T15:26:51.945Z,2.97
2018-09-17T15:29:20.216Z,3.07
2018-09-17T15:31:48.096Z,3.33
2018-09-17T15:34:16.209Z,2.70
2018-09-17T15:36:44.089Z,3.20
2018-09-17T15:39:13.388Z,3.17
2018-09-17T15:41:41.578Z,2.93
2018-09-17T15:44:10.024Z,3.00
2018-09-17T15:46:37.938Z,2.90
2018-09-17T15:49:06.469Z,2.80
2018-09-17T15:51:34.686Z,3.50
2018-09-17T15:54:02.825Z,2.70
2018-09-17T15:56:31.139Z,2.73
2018-09-17T15:58:59.870Z,2.80
2018-09-17T16:01:28.079Z,2.83
2018-09-17T16:03:56.646Z,2.70
2018-09-17T16:06:24.869Z,2.80
2018-09-17T16:08:53.046Z,3.17
2018-09-17T16:11:21.246Z,3.00
2018-09-17T16:13:49.407Z,2.80
2018-09-17T16:16:17.577Z,2.80
2018-09-17T16:18:45.786Z,2.60
2018-09-17T16:21:14.007Z,2.80
2018-09-17T16:23:42.142Z,2.63
2018-09-17T16:26:10.386Z,2.83
2018-09-17T16:28:38.564Z,3.33
2018-09-17T16:31:06.742Z,2.60
2018-09-17T16:33:35.685Z,3.37
2018-09-17T16:36:03.811Z,3.00
2018-09-17T16:38:31.994Z,3.00
2018-09-17T16:41:00.323Z,2.90
2018-09-17T16:43:28.637Z,2.80
2018-09-17T16:45:56.907Z,2.60
2018-09-17T16:48:25.081Z,2.80
2018-09-17T16:50:53.325Z,2.77
2018-09-17T16:53:21.561Z,3.10
2018-09-17T16:55:49.756Z,2.87
2018-09-17T16:58:17.888Z,2.50
2018-09-17T17:00:46.026Z,2.87
2018-09-17T17:03:14.197Z,2.93
2018-09-17T17:05:42.416Z,2.73
2018-09-17T17:08:10.559Z,3.23
2018-09-17T17:10:38.722Z,2.70
2018-09-17T17:13:07.004Z,2.40
2018-09-17T17:15:35.158Z,2.97
2018-09-17T17:18:03.079Z,3.40
2018-09-17T17:20:31.234Z,2.97
2018-09-17T17:22:59.390Z,3.17
2018-09-17T17:25:27.527Z,3.00
2018-09-17T17:27:55.788Z,2.83
2018-09-17T17:30:23.841Z,2.90
2018-09-17T17:32:51.986Z,2.63
2018-09-17T17:35:20.137Z,2.93
2018-09-17T17:37:48.285Z,3.30
2018-09-17T17:40:16.559Z,3.20
2018-09-17T17:42:44.647Z,3.70
2018-09-17T17:45:12.885Z,2.80
2018-09-17T17:47:41.042Z,3.37
2018-09-17T17:50:09.177Z,3.07
2018-09-17T17:52:37.323Z,2.70
2018-09-17T17:55:05.777Z,2.97
2018-09-17T17:57:34.078Z,3.30
2018-09-17T18:00:02.281Z,2.97
2018-09-17T18:02:30.521Z,2.80
2018-09-17T18:04:58.649Z,3.00
2018-09-17T18:07:26.813Z,2.80
2018-09-17T18:09:54.954Z,2.87
2018-09-17T18:12:23.133Z,2.80
2018-09-17T18:14:51.387Z,3.57
2018-09-17T18:17:19.446Z,2.80
2018-09-17T18:19:47.597Z,2.80
2018-09-17T18:22:15.753Z,2.53
2018-09-17T18:24:43.929Z,3.23
2018-09-17T18:27:12.110Z,3.30
2018-09-17T18:29:40.210Z,3.20
2018-09-17T18:32:08.366Z,3.30
2018-09-17T18:34:36.523Z,4.00
2018-09-17T18:37:04.681Z,5.03
2018-09-17T18:39:33.009Z,5.83
2018-09-17T18:42:01.011Z,6.00
2018-09-17T18:44:29.157Z,5.60
2018-09-17T18:46:57.323Z,5.20
2018-09-17T18:49:25.498Z,4.17
2018-09-17T18:51:53.663Z,4.97
2018-09-17T18:54:21.643Z,4.07
2018-09-17T18:56:49.827Z,4.00
2018-09-17T18:59:17.923Z,4.40
2018-09-17T19:01:46.126Z,4.10
2018-09-17T19:04:14.273Z,4.20
2018-09-17T19:06:42.206Z,4.33
2018-09-17T19:09:10.425Z,4.53
2018-09-17T19:11:38.629Z,4.77
2018-09-17T19:14:12.154Z,4.70
2018-09-17T19:16:45.751Z,4.67
2018-09-17T19:19:13.930Z,4.37
2018-09-17T19:21:47.674Z,4.73
2018-09-17T19:24:15.812Z,4.93
2018-09-17T19:26:43.938Z,4.77
2018-09-17T19:29:17.095Z,4.83
2018-09-17T19:31:45.346Z,4.83
2018-09-17T19:34:13.642Z,5.37
2018-09-17T19:36:41.510Z,5.20
2018-09-17T19:39:15.082Z,5.23
2018-09-17T19:41:43.338Z,5.10
2018-09-17T19:44:11.581Z,6.30
2018-09-17T19:46:39.786Z,5.50
2018-09-17T19:49:07.986Z,6.03
2018-09-17T19:51:41.465Z,5.50
2018-09-17T19:54:09.855Z,5.10
2018-09-17T19:56:37.982Z,5.17
2018-09-17T19:59:11.681Z,5.50
2018-09-17T20:01:39.599Z,5.63
2018-09-17T20:04:13.205Z,5.00
2018-09-17T20:06:41.385Z,5.13
2018-09-17T20:09:10.229Z,5.33
2018-09-17T20:11:38.760Z,5.53
2018-09-17T20:14:06.913Z,6.30
2018-09-17T20:16:35.065Z,5.53
2018-09-17T20:19:03.293Z,5.23
2018-09-17T20:21:31.424Z,7.77
2018-09-17T20:23:59.577Z,6.13
2018-09-17T20:26:27.751Z,6.13
2018-09-17T20:28:55.867Z,6.30
2018-09-17T20:31:23.986Z,6.27
2018-09-17T20:33:52.121Z,5.43
2018-09-17T20:36:20.245Z,5.60
2018-09-17T20:38:48.487Z,5.70
2018-09-17T20:41:16.522Z,5.40
2018-09-17T20:43:44.777Z,6.10
2018-09-17T20:46:12.688Z,6.07
2018-09-17T20:48:40.958Z,5.83
2018-09-17T20:51:09.053Z,6.17
2018-09-17T20:53:37.213Z,6.43
2018-09-17T20:56:05.417Z,6.43
2018-09-17T20:58:33.312Z,9.30
2018-09-17T21:01:01.627Z,7.07
2018-09-17T21:03:29.613Z,6.13
2018-09-17T21:05:57.741Z,6.33
2018-09-17T21:08:25.875Z,6.10
2018-09-17T21:10:54.012Z,6.87
2018-09-17T21:13:22.259Z,6.30
2018-09-17T21:15:50.306Z,6.07
2018-09-17T21:18:18.410Z,6.30
2018-09-17T21:20:46.541Z,5.63
2018-09-17T21:23:14.468Z,5.70
2018-09-17T21:25:42.607Z,6.10
2018-09-17T21:28:10.742Z,5.90
2018-09-17T21:30:38.875Z,6.20
2018-09-17T21:33:07.075Z,5.60
2018-09-17T21:35:35.246Z,6.27
2018-09-17T21:38:03.373Z,6.07
2018-09-17T21:40:31.520Z,5.53
2018-09-17T21:42:59.820Z,6.23
2018-09-17T21:45:27.787Z,6.07
2018-09-17T21:47:55.909Z,5.60
2018-09-17T21:50:24.055Z,6.03
2018-09-17T21:52:51.971Z,6.70
2018-09-17T21:55:20.111Z,5.83
2018-09-17T21:57:48.314Z,5.97
2018-09-17T22:00:16.442Z,5.70
2018-09-17T22:02:44.568Z,5.80
2018-09-17T22:05:12.460Z,6.97
2018-09-17T22:07:40.597Z,5.70
2018-09-17T22:10:08.753Z,5.50
2018-09-17T22:12:36.935Z,6.03
2018-09-17T22:15:05.197Z,5.70
2018-09-17T22:17:33.425Z,5.30
2018-09-17T22:20:01.559Z,5.63
2018-09-17T22:22:29.695Z,6.47
2018-09-17T22:24:57.866Z,6.10
2018-09-17T22:27:26.018Z,6.20
2018-09-17T22:29:54.149Z,5.53
2018-09-17T22:32:22.314Z,5.60
2018-09-17T22:34:50.438Z,5.50
2018-09-17T22:37:18.602Z,5.00
2018-09-17T22:39:46.721Z,5.53
2018-09-17T22:42:14.905Z,5.77
2018-09-17T22:44:43.138Z,4.80
2018-09-17T22:47:11.304Z,5.03
2018-09-17T22:49:39.416Z,6.33
2018-09-17T22:52:07.558Z,4.67
2018-09-17T22:54:35.678Z,4.70
2018-09-17T22:57:03.809Z,5.07
2018-09-17T22:59:31.952Z,5.30
2018-09-17T23:02:00.086Z,6.00
2018-09-17T23:04:28.292Z,5.50
2018-09-17T23:06:56.421Z,5.43
2018-09-17T23:09:24.557Z,5.57
2018-09-17T23:11:52.686Z,5.63
2018-09-17T23:14:20.797Z,5.60
2018-09-17T23:16:48.921Z,5.50
2018-09-17T23:19:17.053Z,5.77
2018-09-17T23:21:45.175Z,5.53
2018-09-17T23:24:13.297Z,5.43
2018-09-17T23:26:41.213Z,5.03
2018-09-17T23:29:09.110Z,5.50
2018-09-17T23:31:37.265Z,5.60
2018-09-17T23:34:05.406Z,5.97
2018-09-17T23:36:33.297Z,5.83
2018-09-17T23:39:01.449Z,5.90
2018-09-17T23:41:29.630Z,5.53
2018-09-17T23:43:57.817Z,5.60
2018-09-17T23:46:25.965Z,5.93
2018-09-17T23:48:54.101Z,5.47
2018-09-17T23:51:22.241Z,5.63
2018-09-17T23:53:50.404Z,6.10
2018-09-17T23:56:18.539Z,5.50
2018-09-17T23:58:46.672Z,6.93
